createdAt,value
2018-08-17T00:00:54.013Z,40.80
2018-08-17T00:03:22.832Z,40.70
2018-08-17T00:05:52.601Z,40.70
2018-08-17T00:08:21.437Z,40.70
2018-08-17T00:10:50.255Z,40.80
2018-08-17T00:13:19.085Z,40.80
2018-08-17T00:15:47.922Z,40.80
2018-08-17T00:18:17.362Z,40.90
2018-08-17T00:20:46.211Z,40.80
2018-08-17T00:23:15.024Z,40.70
2018-08-17T00:25:43.833Z,40.90
2018-08-17T00:28:12.929Z,40.80
2018-08-17T00:30:41.736Z,40.90
2018-08-17T00:33:10.834Z,40.90
2018-08-17T00:35:39.719Z,40.90
2018-08-17T00:38:08.517Z,41.00
2018-08-17T00:40:37.405Z,41.00
2018-08-17T00:43:06.277Z,41.10
2018-08-17T00:45:35.093Z,41.10
2018-08-17T00:48:03.981Z,41.20
2018-08-17T00:50:32.881Z,41.10
2018-08-17T00:53:08.641Z,41.10
2018-08-17T00:55:37.496Z,41.20
2018-08-17T00:58:06.329Z,41.30
2018-08-17T01:00:35.137Z,41.30
2018-08-17T01:03:04.834Z,41.40
2018-08-17T01:05:33.649Z,41.40
2018-08-17T01:08:03.189Z,41.50
2018-08-17T01:10:32.999Z,41.40
2018-08-17T01:13:02.125Z,41.60
2018-08-17T01:15:30.982Z,41.60
2018-08-17T01:17:59.846Z,41.50
2018-08-17T01:20:28.703Z,41.60
2018-08-17T01:22:58.528Z,41.60
2018-08-17T01:25:27.332Z,41.70
2018-08-17T01:27:56.478Z,41.60
2018-08-17T01:30:25.319Z,41.70
2018-08-17T01:32:54.273Z,41.80
2018-08-17T01:35:23.051Z,41.90
2018-08-17T01:37:51.869Z,41.90
2018-08-17T01:40:20.707Z,41.90
2018-08-17T01:42:49.506Z,41.90
2018-08-17T01:45:18.305Z,42.00
2018-08-17T01:47:47.126Z,42.10
2018-08-17T01:50:15.978Z,42.10
2018-08-17T01:52:44.775Z,42.10
2018-08-17T01:55:14.452Z,42.10
2018-08-17T01:57:43.349Z,42.80
2018-08-17T02:00:12.538Z,42.20
2018-08-17T02:02:42.367Z,42.40
2018-08-17T02:05:11.861Z,42.20
2018-08-17T02:07:40.734Z,42.30
2018-08-17T02:10:10.978Z,42.40
2018-08-17T02:12:40.687Z,42.30
2018-08-17T02:15:09.511Z,42.50
2018-08-17T02:17:38.621Z,42.50
2018-08-17T02:20:09.409Z,42.50
2018-08-17T02:22:38.213Z,42.60
2018-08-17T02:25:08.771Z,42.70
2018-08-17T02:27:37.595Z,42.80
2018-08-17T02:30:08.664Z,42.80
2018-08-17T02:32:37.556Z,42.80
2018-08-17T02:35:07.510Z,42.80
2018-08-17T02:37:36.369Z,42.90
2018-08-17T02:40:06.425Z,42.90
2018-08-17T02:42:35.304Z,43.00
2018-08-17T02:45:04.788Z,43.00
2018-08-17T02:47:33.642Z,43.00
2018-08-17T02:50:02.495Z,43.10
2018-08-17T02:52:31.367Z,43.20
2018-08-17T02:55:00.203Z,43.20
2018-08-17T02:57:29.352Z,43.20
2018-08-17T02:59:58.196Z,43.60
2018-08-17T03:02:28.452Z,43.40
2018-08-17T03:04:57.469Z,43.40
2018-08-17T03:07:28.311Z,43.50
2018-08-17T03:09:57.752Z,43.60
2018-08-17T03:12:26.649Z,43.60
2018-08-17T03:14:55.492Z,43.60
2018-08-17T03:17:24.349Z,43.70
2018-08-17T03:19:53.158Z,43.80
2018-08-17T03:22:21.993Z,43.90
2018-08-17T03:24:50.996Z,43.90
2018-08-17T03:27:19.814Z,44.00
2018-08-17T03:29:49.643Z,44.10
2018-08-17T03:32:18.476Z,44.10
2018-08-17T03:34:47.316Z,44.10
2018-08-17T03:37:16.140Z,44.10
2018-08-17T03:39:44.979Z,44.20
2018-08-17T03:42:14.383Z,44.30
2018-08-17T03:44:43.228Z,44.30
2018-08-17T03:47:12.218Z,44.40
2018-08-17T03:49:47.881Z,44.40
2018-08-17T03:52:16.709Z,44.50
2018-08-17T03:54:45.533Z,44.50
2018-08-17T03:57:14.669Z,44.60
2018-08-17T03:59:44.413Z,44.60
2018-08-17T04:02:13.237Z,45.40
2018-08-17T04:04:42.427Z,44.80
2018-08-17T04:07:11.992Z,44.80
2018-08-17T04:09:40.822Z,44.80
2018-08-17T04:12:09.657Z,44.90
2018-08-17T04:14:38.520Z,45.00
2018-08-17T04:17:07.479Z,45.00
2018-08-17T04:19:36.357Z,45.10
2018-08-17T04:22:05.276Z,45.20
2018-08-17T04:24:34.081Z,45.20
2018-08-17T04:27:03.924Z,45.30
2018-08-17T04:29:33.043Z,45.30
2018-08-17T04:32:01.847Z,45.30
2018-08-17T04:34:30.675Z,45.40
2018-08-17T04:36:59.567Z,45.40
2018-08-17T04:39:28.405Z,45.40
2018-08-17T04:41:57.803Z,45.50
2018-08-17T04:44:27.299Z,45.50
2018-08-17T04:46:57.263Z,45.50
2018-08-17T04:49:26.794Z,45.50
2018-08-17T04:51:55.927Z,45.50
2018-08-17T04:54:24.729Z,45.60
2018-08-17T04:56:53.554Z,45.70
2018-08-17T04:59:22.361Z,45.60
2018-08-17T05:01:51.730Z,45.50
2018-08-17T05:04:20.587Z,45.50
2018-08-17T05:06:50.129Z,45.50
2018-08-17T05:09:19.450Z,45.60
2018-08-17T05:11:48.339Z,45.60
2018-08-17T05:14:17.269Z,45.50
2018-08-17T05:16:46.079Z,45.60
2018-08-17T05:19:15.765Z,45.50
2018-08-17T05:21:44.871Z,45.50
2018-08-17T05:24:14.465Z,45.40
2018-08-17T05:26:43.324Z,45.40
2018-08-17T05:29:12.232Z,45.50
2018-08-17T05:31:41.039Z,45.50
2018-08-17T05:34:10.383Z,45.50
2018-08-17T05:36:39.444Z,45.40
2018-08-17T05:39:09.148Z,45.30
2018-08-17T05:41:37.971Z,45.20
2018-08-17T05:44:07.079Z,45.00
2018-08-17T05:46:35.908Z,44.80
2018-08-17T05:49:04.786Z,44.70
2018-08-17T05:51:33.663Z,44.60
2018-08-17T05:54:02.493Z,44.30
2018-08-17T05:56:31.308Z,44.10
2018-08-17T05:59:00.454Z,43.90
2018-08-17T06:01:29.310Z,43.90
2018-08-17T06:04:00.175Z,43.60
2018-08-17T06:06:29.043Z,43.60
2018-08-17T06:08:57.863Z,43.40
2018-08-17T06:11:26.816Z,43.30
2018-08-17T06:13:55.543Z,43.20
2018-08-17T06:16:24.406Z,43.10
2018-08-17T06:18:53.454Z,43.00
2018-08-17T06:21:22.655Z,42.90
2018-08-17T06:23:51.499Z,43.00
2018-08-17T06:26:20.332Z,43.00
2018-08-17T06:28:49.221Z,42.80
2018-08-17T06:31:18.056Z,42.80
2018-08-17T06:33:46.862Z,43.00
2018-08-17T06:36:15.680Z,42.70
2018-08-17T06:38:44.516Z,42.70
2018-08-17T06:41:13.428Z,42.60
2018-08-17T06:43:42.566Z,42.60
2018-08-17T06:46:11.406Z,42.80
2018-08-17T06:48:40.198Z,42.80
2018-08-17T06:51:09.061Z,42.60
2018-08-17T06:53:37.834Z,42.70
2018-08-17T06:56:06.722Z,42.60
2018-08-17T06:58:35.536Z,42.50
2018-08-17T07:01:04.350Z,42.50
2018-08-17T07:03:33.264Z,42.50
2018-08-17T07:06:03.302Z,42.40
2018-08-17T07:08:32.191Z,42.40
2018-08-17T07:11:00.962Z,42.30
2018-08-17T07:13:29.824Z,42.20
2018-08-17T07:15:58.651Z,42.20
2018-08-17T07:18:27.450Z,42.10
2018-08-17T07:20:56.263Z,42.00
2018-08-17T07:23:25.103Z,42.10
2018-08-17T07:25:53.893Z,41.90
2018-08-17T07:28:22.813Z,42.00
2018-08-17T07:30:51.623Z,41.80
2018-08-17T07:33:21.195Z,42.10
2018-08-17T07:35:50.154Z,41.60
2018-08-17T07:38:18.854Z,41.50
2018-08-17T07:40:47.675Z,41.40
2018-08-17T07:43:16.484Z,41.40
2018-08-17T07:45:45.294Z,41.90
2018-08-17T07:48:14.221Z,41.10
2018-08-17T07:50:43.043Z,41.00
2018-08-17T07:53:11.851Z,41.10
2018-08-17T07:55:40.680Z,40.90
2018-08-17T07:58:09.493Z,40.70
2018-08-17T08:00:38.343Z,40.50
2018-08-17T08:03:07.144Z,40.40
2018-08-17T08:05:35.991Z,40.30
2018-08-17T08:08:05.232Z,40.10
2018-08-17T08:10:34.031Z,40.00
2018-08-17T08:13:03.539Z,39.90
2018-08-17T08:15:32.361Z,39.90
2018-08-17T08:18:01.187Z,39.80
2018-08-17T08:20:34.974Z,39.50
2018-08-17T08:23:20.763Z,39.40
2018-08-17T08:25:50.240Z,39.40
2018-08-17T08:28:19.086Z,39.30
2018-08-17T08:30:48.530Z,39.30
2018-08-17T08:33:18.143Z,39.00
2018-08-17T08:35:47.254Z,38.50
2018-08-17T08:38:16.079Z,38.70
2018-08-17T08:40:45.445Z,38.70
2018-08-17T08:43:14.271Z,38.60
2018-08-17T08:45:43.655Z,38.40
2018-08-17T08:48:12.466Z,38.30
2018-08-17T08:50:41.275Z,38.30
2018-08-17T08:53:10.401Z,38.10
2018-08-17T08:55:39.355Z,37.70
2018-08-17T08:58:08.179Z,37.50
2018-08-17T09:00:37.639Z,37.30
2018-08-17T09:03:07.217Z,37.30
2018-08-17T09:05:36.134Z,37.30
2018-08-17T09:08:05.861Z,37.20
2018-08-17T09:10:34.655Z,37.40
2018-08-17T09:13:03.463Z,37.30
2018-08-17T09:15:32.262Z,37.10
2018-08-17T09:18:01.683Z,37.00
2018-08-17T09:20:30.480Z,36.90
2018-08-17T09:22:59.298Z,36.90
2018-08-17T09:25:28.158Z,36.40
2018-08-17T09:27:56.982Z,36.50
2018-08-17T09:30:25.788Z,36.40
2018-08-17T09:32:54.611Z,36.10
2018-08-17T09:35:23.472Z,36.20
2018-08-17T09:37:52.270Z,35.80
2018-08-17T09:40:21.360Z,35.80
2018-08-17T09:42:50.186Z,35.80
2018-08-17T09:45:18.998Z,35.50
2018-08-17T09:47:47.863Z,35.60
2018-08-17T09:50:16.683Z,35.30
2018-08-17T09:52:45.504Z,35.90
2018-08-17T09:55:14.332Z,35.30
2018-08-17T09:57:46.286Z,34.90
2018-08-17T10:00:15.676Z,34.60
2018-08-17T10:02:49.826Z,34.60
2018-08-17T10:05:23.921Z,34.60
2018-08-17T10:07:58.762Z,34.40
2018-08-17T10:10:27.879Z,34.40
2018-08-17T10:12:56.703Z,34.20
2018-08-17T10:15:25.498Z,33.80
2018-08-17T10:17:54.588Z,33.80
2018-08-17T10:20:24.107Z,34.20
2018-08-17T10:22:52.906Z,33.90
2018-08-17T10:25:22.928Z,33.90
2018-08-17T10:27:54.069Z,33.40
2018-08-17T10:30:23.507Z,33.30
2018-08-17T10:32:58.645Z,33.30
2018-08-17T10:35:29.659Z,33.00
2018-08-17T10:38:00.493Z,33.20
2018-08-17T10:40:29.569Z,33.10
2018-08-17T10:43:00.206Z,32.90
2018-08-17T10:45:29.414Z,32.80
2018-08-17T10:47:59.364Z,33.00
2018-08-17T10:50:29.468Z,33.10
2018-08-17T10:53:01.931Z,32.10
2018-08-17T10:55:41.156Z,32.20
2018-08-17T10:58:12.292Z,31.80
2018-08-17T11:00:41.127Z,31.70
2018-08-17T11:03:10.069Z,31.80
2018-08-17T11:05:39.017Z,31.60
2018-08-17T11:08:07.976Z,31.40
2018-08-17T11:10:37.276Z,31.20
2018-08-17T11:13:06.564Z,31.40
2018-08-17T11:15:35.407Z,31.40
2018-08-17T11:18:04.209Z,31.40
2018-08-17T11:20:33.068Z,31.10
2018-08-17T11:23:01.964Z,31.00
2018-08-17T11:25:30.796Z,31.40
2018-08-17T11:28:00.220Z,31.00
2018-08-17T11:30:43.936Z,30.80
2018-08-17T11:33:13.261Z,31.00
2018-08-17T11:35:42.072Z,30.50
2018-08-17T11:38:15.943Z,30.40
2018-08-17T11:40:45.630Z,30.50
2018-08-17T11:43:14.453Z,30.30
2018-08-17T11:45:44.904Z,30.50
2018-08-17T11:48:26.168Z,29.90
2018-08-17T11:50:56.634Z,29.80
2018-08-17T11:53:25.491Z,29.60
2018-08-17T11:55:54.281Z,29.60
2018-08-17T11:58:23.122Z,29.40
2018-08-17T12:00:51.948Z,29.40
2018-08-17T12:03:20.795Z,29.20
2018-08-17T12:05:49.627Z,29.20
2018-08-17T12:08:18.557Z,29.10
2018-08-17T12:10:54.670Z,28.50
2018-08-17T12:13:23.471Z,28.70
2018-08-17T12:15:57.174Z,28.50
2018-08-17T12:18:26.371Z,28.30
2018-08-17T12:20:55.658Z,28.40
2018-08-17T12:23:25.227Z,28.50
2018-08-17T12:25:57.623Z,28.40
2018-08-17T12:28:28.126Z,28.30
2018-08-17T12:30:57.625Z,28.40
2018-08-17T12:33:26.445Z,28.20
2018-08-17T12:35:55.353Z,28.10
2018-08-17T12:38:25.131Z,28.00
2018-08-17T12:40:55.082Z,27.80
2018-08-17T12:43:28.087Z,27.90
2018-08-17T12:45:56.911Z,28.30
2018-08-17T12:48:25.798Z,27.90
2018-08-17T12:50:59.136Z,27.80
2018-08-17T12:53:28.034Z,27.70
2018-08-17T12:56:03.620Z,27.70
2018-08-17T12:58:32.478Z,27.50
2018-08-17T13:01:01.713Z,27.30
2018-08-17T13:03:30.539Z,27.40
2018-08-17T13:05:59.378Z,27.30
2018-08-17T13:08:28.215Z,27.30
2018-08-17T13:10:59.907Z,27.30
2018-08-17T13:13:28.739Z,27.20
2018-08-17T13:16:03.031Z,27.20
2018-08-17T13:18:35.754Z,27.30
2018-08-17T13:21:04.625Z,27.20
2018-08-17T13:23:34.058Z,27.30
2018-08-17T13:26:02.869Z,27.70
2018-08-17T13:28:32.151Z,27.40
2018-08-17T13:31:01.023Z,27.50
2018-08-17T13:33:29.826Z,27.10
2018-08-17T13:35:58.706Z,27.30
2018-08-17T13:38:27.479Z,27.30
2018-08-17T13:40:56.334Z,27.30
2018-08-17T13:43:25.154Z,27.30
2018-08-17T13:45:53.973Z,27.50
2018-08-17T13:48:22.793Z,27.50
2018-08-17T13:50:52.394Z,27.00
2018-08-17T13:53:21.498Z,27.00
2018-08-17T13:55:50.329Z,27.10
2018-08-17T13:58:19.728Z,27.50
2018-08-17T14:00:48.527Z,27.30
2018-08-17T14:03:17.337Z,27.20
2018-08-17T14:05:46.189Z,27.10
2018-08-17T14:08:15.958Z,27.20
2018-08-17T14:10:44.731Z,27.10
2018-08-17T14:13:14.285Z,27.20
2018-08-17T14:15:44.033Z,27.20
2018-08-17T14:18:12.910Z,27.20
2018-08-17T14:20:41.714Z,27.20
2018-08-17T14:23:10.579Z,27.30
2018-08-17T14:25:39.477Z,27.20
2018-08-17T14:28:08.321Z,27.20
2018-08-17T14:30:37.155Z,27.00
2018-08-17T14:33:06.023Z,26.80
2018-08-17T14:35:35.102Z,26.60
2018-08-17T14:38:04.511Z,27.00
2018-08-17T14:40:33.443Z,26.80
2018-08-17T14:43:02.294Z,26.80
2018-08-17T14:45:31.226Z,26.70
2018-08-17T14:48:00.075Z,26.80
2018-08-17T14:50:29.001Z,26.70
2018-08-17T14:52:57.824Z,26.90
2018-08-17T14:55:26.664Z,26.90
2018-08-17T14:57:56.142Z,27.00
2018-08-17T15:00:25.004Z,27.10
2018-08-17T15:02:53.849Z,27.10
2018-08-17T15:05:22.711Z,27.30
2018-08-17T15:07:51.554Z,27.50
2018-08-17T15:10:20.367Z,27.50
2018-08-17T15:12:49.261Z,27.70
2018-08-17T15:15:18.399Z,28.00
2018-08-17T15:17:47.430Z,28.20
2018-08-17T15:20:16.823Z,28.40
2018-08-17T15:22:45.666Z,28.70
2018-08-17T15:25:14.498Z,28.50
2018-08-17T15:27:43.293Z,28.70
2018-08-17T15:30:12.652Z,28.70
2018-08-17T15:32:42.576Z,29.00
2018-08-17T15:35:12.020Z,29.20
2018-08-17T15:37:40.959Z,29.10
2018-08-17T15:40:12.486Z,29.20
2018-08-17T15:42:42.622Z,29.40
2018-08-17T15:45:12.077Z,29.20
2018-08-17T15:47:40.946Z,29.30
2018-08-17T15:50:19.783Z,29.50
2018-08-17T15:52:48.641Z,29.60
2018-08-17T15:55:17.492Z,29.40
2018-08-17T15:57:46.488Z,29.60
2018-08-17T16:00:19.255Z,29.60
2018-08-17T16:02:48.342Z,29.60
2018-08-17T16:05:17.454Z,29.80
2018-08-17T16:07:46.298Z,29.80
2018-08-17T16:10:16.063Z,30.00
2018-08-17T16:12:45.391Z,30.00
2018-08-17T16:15:14.216Z,30.00
2018-08-17T16:17:43.504Z,30.00
2018-08-17T16:20:13.110Z,30.00
2018-08-17T16:22:43.316Z,30.00
2018-08-17T16:25:13.022Z,30.00
2018-08-17T16:27:42.544Z,30.10
2018-08-17T16:30:14.342Z,30.20
2018-08-17T16:32:43.452Z,30.30
2018-08-17T16:35:13.083Z,30.40
2018-08-17T16:37:45.901Z,30.50
2018-08-17T16:40:14.776Z,30.60
2018-08-17T16:42:43.607Z,30.90
2018-08-17T16:45:12.463Z,31.10
2018-08-17T16:47:42.126Z,31.40
2018-08-17T16:50:10.960Z,31.50
2018-08-17T16:52:40.267Z,31.70
2018-08-17T16:55:15.804Z,31.80
2018-08-17T16:57:45.096Z,32.00
2018-08-17T17:00:14.777Z,32.20
2018-08-17T17:02:43.572Z,32.70
2018-08-17T17:05:12.439Z,33.20
2018-08-17T17:07:41.287Z,34.20
2018-08-17T17:10:10.578Z,34.70
2018-08-17T17:12:39.783Z,35.10
2018-08-17T17:15:25.537Z,35.10
2018-08-17T17:18:01.631Z,35.70
2018-08-17T17:20:35.508Z,35.90
2018-08-17T17:23:06.363Z,36.20
2018-08-17T17:25:35.456Z,36.40
2018-08-17T17:28:04.316Z,37.20
2018-08-17T17:30:38.991Z,37.30
2018-08-17T17:33:08.333Z,37.50
2018-08-17T17:35:38.084Z,37.80
2018-08-17T17:38:07.391Z,38.10
2018-08-17T17:40:36.210Z,38.30
2018-08-17T17:43:05.280Z,38.70
2018-08-17T17:45:34.214Z,38.80
2018-08-17T17:48:03.547Z,39.00
2018-08-17T17:50:32.510Z,39.10
2018-08-17T17:53:02.328Z,39.40
2018-08-17T17:55:44.428Z,40.20
2018-08-17T17:58:13.704Z,39.80
2018-08-17T18:00:53.267Z,39.60
2018-08-17T18:03:22.491Z,39.80
2018-08-17T18:05:51.303Z,39.80
2018-08-17T18:08:20.779Z,39.80
2018-08-17T18:10:49.905Z,39.90
2018-08-17T18:13:18.729Z,40.00
2018-08-17T18:15:47.557Z,40.10
2018-08-17T18:18:17.378Z,40.20
2018-08-17T18:20:46.235Z,40.40
2018-08-17T18:23:15.515Z,40.40
2018-08-17T18:25:44.331Z,40.40
2018-08-17T18:28:13.165Z,40.50
2018-08-17T18:30:42.028Z,40.40
2018-08-17T18:33:10.959Z,40.00
2018-08-17T18:35:39.778Z,40.60
2018-08-17T18:38:08.790Z,40.80
2018-08-17T18:40:37.739Z,40.80
2018-08-17T18:43:06.964Z,40.90
2018-08-17T18:45:35.859Z,40.80
2018-08-17T18:48:04.727Z,40.80
2018-08-17T18:50:34.080Z,40.90
2018-08-17T18:53:02.959Z,40.90
2018-08-17T18:55:31.824Z,41.00
2018-08-17T18:58:00.624Z,40.90
2018-08-17T19:00:29.444Z,40.90
2018-08-17T19:02:58.472Z,40.90
2018-08-17T19:05:27.317Z,41.10
2018-08-17T19:07:56.133Z,41.10
2018-08-17T19:10:25.036Z,41.20
2018-08-17T19:12:53.883Z,41.20
2018-08-17T19:15:22.683Z,41.20
2018-08-17T19:17:51.519Z,41.50
2018-08-17T19:20:20.749Z,41.40
2018-08-17T19:22:49.574Z,41.50
2018-08-17T19:25:18.598Z,41.50
2018-08-17T19:27:47.385Z,41.60
2018-08-17T19:30:26.308Z,41.70
2018-08-17T19:32:56.614Z,41.90
2018-08-17T19:35:25.433Z,42.00
2018-08-17T19:37:54.915Z,42.10
2018-08-17T19:40:24.808Z,42.20
2018-08-17T19:42:53.940Z,42.40
2018-08-17T19:45:23.344Z,42.40
2018-08-17T19:47:53.260Z,42.70
2018-08-17T19:50:22.107Z,42.70
2018-08-17T19:52:50.990Z,42.70
2018-08-17T19:55:19.779Z,42.80
2018-08-17T19:57:48.603Z,42.90
2018-08-17T20:00:17.467Z,43.10
2018-08-17T20:02:46.279Z,42.60
2018-08-17T20:05:15.742Z,43.20
2018-08-17T20:07:44.700Z,43.30
2018-08-17T20:10:14.435Z,43.30
2018-08-17T20:12:44.098Z,43.40
2018-08-17T20:15:12.925Z,44.20
2018-08-17T20:17:49.555Z,43.50
2018-08-17T20:20:18.901Z,43.60
2018-08-17T20:22:48.251Z,43.60
2018-08-17T20:25:18.092Z,43.80
2018-08-17T20:27:47.607Z,43.90
2018-08-17T20:30:22.831Z,43.90
2018-08-17T20:32:51.663Z,44.60
2018-08-17T20:35:20.545Z,44.10
2018-08-17T20:37:52.158Z,44.20
2018-08-17T20:40:21.730Z,44.20
2018-08-17T20:42:50.562Z,44.20
2018-08-17T20:45:19.868Z,44.10
2018-08-17T20:47:48.683Z,44.20
2018-08-17T20:50:18.863Z,44.10
2018-08-17T20:52:53.607Z,44.10
2018-08-17T20:55:22.448Z,44.00
2018-08-17T20:57:53.619Z,44.00
2018-08-17T21:00:24.498Z,43.90
2018-08-17T21:02:53.259Z,43.90
2018-08-17T21:05:22.739Z,43.70
2018-08-17T21:07:51.764Z,43.80
2018-08-17T21:10:20.614Z,43.70
2018-08-17T21:12:49.737Z,43.80
2018-08-17T21:15:18.939Z,43.90
2018-08-17T21:17:48.440Z,44.00
2018-08-17T21:20:17.253Z,44.00
2018-08-17T21:22:46.194Z,44.20
2018-08-17T21:25:16.524Z,44.20
2018-08-17T21:27:45.362Z,44.40
2018-08-17T21:30:14.203Z,44.40
2018-08-17T21:32:43.018Z,44.60
2018-08-17T21:35:11.855Z,44.70
2018-08-17T21:37:40.719Z,44.80
2018-08-17T21:40:16.659Z,45.10
2018-08-17T21:42:46.873Z,45.30
2018-08-17T21:45:15.744Z,45.40
2018-08-17T21:47:44.664Z,45.70
2018-08-17T21:50:14.466Z,45.80
2018-08-17T21:52:44.299Z,46.20
2018-08-17T21:55:13.578Z,46.20
2018-08-17T21:57:42.605Z,46.40
2018-08-17T22:00:28.871Z,46.60
2018-08-17T22:02:58.166Z,46.80
2018-08-17T22:05:29.274Z,46.70
2018-08-17T22:07:58.454Z,47.10
2018-08-17T22:10:27.279Z,47.40
2018-08-17T22:12:56.111Z,47.40
2018-08-17T22:15:27.947Z,47.70
2018-08-17T22:17:57.492Z,47.70
2018-08-17T22:20:26.308Z,47.80
2018-08-17T22:22:58.773Z,47.90
2018-08-17T22:25:27.942Z,48.00
2018-08-17T22:27:57.539Z,48.00
2018-08-17T22:30:27.166Z,48.20
2018-08-17T22:33:02.606Z,48.10
2018-08-17T22:35:31.443Z,48.30
2018-08-17T22:38:00.222Z,48.40
2018-08-17T22:40:30.100Z,48.60
2018-08-17T22:42:59.880Z,48.50
2018-08-17T22:45:28.699Z,48.90
2018-08-17T22:47:57.525Z,48.80
2018-08-17T22:50:26.367Z,48.90
2018-08-17T22:52:55.247Z,49.10
2018-08-17T22:55:24.355Z,49.40
2018-08-17T22:57:53.189Z,49.50
2018-08-17T23:00:25.721Z,49.50
2018-08-17T23:02:56.340Z,49.60
2018-08-17T23:05:29.273Z,49.70
2018-08-17T23:07:58.081Z,50.10
2018-08-17T23:10:27.834Z,49.90
2018-08-17T23:12:57.223Z,50.00
2018-08-17T23:15:26.078Z,50.10
2018-08-17T23:17:57.151Z,49.80
2018-08-17T23:20:31.834Z,50.40
2018-08-17T23:23:01.576Z,50.40
2018-08-17T23:25:31.302Z,50.60
2018-08-17T23:28:01.173Z,50.60
2018-08-17T23:30:29.989Z,50.80
2018-08-17T23:32:58.796Z,50.80
2018-08-17T23:35:27.625Z,50.90
2018-08-17T23:37:56.478Z,50.90
2018-08-17T23:40:25.274Z,51.00
2018-08-17T23:42:54.316Z,51.20
2018-08-17T23:45:23.166Z,51.20
2018-08-17T23:47:51.995Z,51.50
2018-08-17T23:50:20.801Z,51.50
2018-08-17T23:52:49.630Z,51.70
2018-08-17T23:55:18.925Z,51.60
2018-08-17T23:57:47.768Z,51.80
